Time;durP1;ratioP1;P1;durP2;ratioP2;P2;SDS_P1;SDS_P2;PMS_P1;PMS_P2;Temp;Humidity;BMP_temperature;BMP_pressure;BME280_temperature;BME280_humidity;BME280_pressure;Samples;Min_cycle;Max_cycle;Signal;HPM_P1;HPM_P2
2021/12/20 00:00:04;;;;;;;12.23;7.13;;;;;;;4.80;55.33;94427.84;5011199;28;20496;-75
2021/12/20 00:02:30;;;;;;;8.80;6.45;;;;;;;4.85;55.55;94434.94;5010750;28;20392;-75
2021/12/20 00:04:55;;;;;;;6.18;5.38;;;;;;;4.87;55.44;94443.25;5012673;28;20030;-80
2021/12/20 00:07:21;;;;;;;8.10;5.95;;;;;;;4.81;55.31;94455.97;5013037;28;20041;-76
2021/12/20 00:09:46;;;;;;;6.30;5.40;;;;;;;4.80;55.25;94453.59;5032354;28;20024;-75
2021/12/20 00:12:12;;;;;;;8.38;6.10;;;;;;;4.76;55.47;94450.66;5032264;28;20037;-76
2021/12/20 00:17:14;;;;;;;13.30;6.47;;;;;;;4.85;55.82;94445.25;5071560;22;20060;-76
2021/12/20 00:19:40;;;;;;;10.60;6.38;;;;;;;4.92;55.44;94451.19;5031827;28;20029;-76
2021/12/20 00:22:05;;;;;;;11.57;7.13;;;;;;;4.97;55.49;94444.41;5032048;28;20041;-76
2021/12/20 00:24:39;;;;;;;17.85;8.38;;;;;;;4.98;54.98;94445.19;5031488;28;20037;-76
2021/12/20 00:27:07;;;;;;;14.63;9.13;;;;;;;4.94;55.68;94454.34;5029880;28;20116;-76
2021/12/20 00:29:34;;;;;;;13.80;9.45;;;;;;;4.94;56.27;94454.34;5031187;28;20064;-76
2021/12/20 00:31:59;;;;;;;11.65;8.27;;;;;;;5.03;55.87;94446.16;5031367;28;20148;-76
2021/12/20 00:34:45;;;;;;;8.57;6.57;;;;;;;5.07;55.71;94429.31;5031651;28;20045;-76
2021/12/20 00:40:21;;;;;;;9.13;6.30;;;;;;;4.97;56.28;94423.81;5017282;28;20047;-76
2021/12/20 00:42:56;;;;;;;12.73;8.50;;;;;;;5.02;55.98;94420.59;5032931;28;20101;-76
2021/12/20 00:45:26;;;;;;;8.30;6.68;;;;;;;4.95;56.02;94414.69;5031550;28;20029;-76
2021/12/20 00:47:52;;;;;;;6.57;5.78;;;;;;;4.77;56.49;94408.44;5040037;23;20046;-76
2021/12/20 00:50:18;;;;;;;7.95;6.03;;;;;;;4.79;56.97;94414.19;5021954;28;20111;-76
2021/12/20 00:52:44;;;;;;;5.75;5.15;;;;;;;4.78;56.61;94404.88;5019477;28;20038;-75
2021/12/20 00:55:10;;;;;;;5.68;5.18;;;;;;;4.77;55.95;94403.28;5010593;28;20030;-76
2021/12/20 00:57:37;;;;;;;5.70;5.20;;;;;;;4.80;56.33;94402.88;5011847;28;20498;-75
2021/12/20 01:00:05;;;;;;;6.05;4.93;;;;;;;4.88;56.14;94403.63;5011570;28;20038;-76
2021/12/20 01:02:32;;;;;;;5.82;5.25;;;;;;;4.89;55.73;94394.94;5008888;28;20042;-76
2021/12/20 01:04:58;;;;;;;7.35;5.90;;;;;;;4.89;56.00;94394.94;5011040;28;20025;-76
2021/12/20 01:07:23;;;;;;;5.45;4.53;;;;;;;4.91;56.02;94390.34;5010514;28;20482;-76
2021/12/20 01:09:49;;;;;;;6.85;5.30;;;;;;;4.77;55.85;94395.56;5010731;28;20810;-76
2021/12/20 01:12:20;;;;;;;9.80;4.93;;;;;;;4.74;55.63;94408.88;5011644;28;20025;-76
2021/12/20 01:14:45;;;;;;;5.95;5.10;;;;;;;4.70;56.02;94406.88;5026557;28;20040;-76
2021/12/20 01:17:11;;;;;;;4.88;4.20;;;;;;;4.70;56.56;94402.53;5009131;28;20493;-75
2021/12/20 01:19:36;;;;;;;6.55;5.93;;;;;;;4.72;56.51;94403.13;5011533;28;20080;-76
2021/12/20 01:22:02;;;;;;;5.32;4.82;;;;;;;4.68;55.91;94409.66;5010159;28;20041;-75
2021/12/20 01:24:28;;;;;;;6.15;4.65;;;;;;;4.64;56.05;94421.38;5008003;28;20038;-75
2021/12/20 01:26:53;;;;;;;6.22;4.35;;;;;;;4.61;56.69;94419.22;5011391;28;20037;-77
2021/12/20 01:29:19;;;;;;;5.07;4.60;;;;;;;4.63;55.83;94406.91;5011067;28;20026;-76
2021/12/20 01:31:44;;;;;;;5.28;4.40;;;;;;;4.62;55.85;94425.94;5011231;28;20033;-76
2021/12/20 01:34:15;;;;;;;5.72;4.25;;;;;;;4.63;55.55;94422.38;5011001;28;20033;-77
2021/12/20 01:36:41;;;;;;;6.75;5.38;;;;;;;4.63;55.74;94419.00;4993562;28;20158;-74
2021/12/20 01:39:06;;;;;;;5.43;4.90;;;;;;;4.60;55.64;94407.34;4993717;28;20034;-77
2021/12/20 01:41:45;;;;;;;5.65;5.07;;;;;;;4.60;55.96;94422.78;5010878;28;20509;-75
2021/12/20 01:44:12;;;;;;;8.15;5.00;;;;;;;4.60;56.31;94427.94;5010531;28;20049;-75
2021/12/20 01:46:37;;;;;;;5.18;4.45;;;;;;;4.65;56.23;94414.44;5011023;28;20085;-75
2021/12/20 01:49:26;;;;;;;6.50;4.93;;;;;;;4.75;56.03;94425.91;5011400;28;20505;-76
2021/12/20 01:52:04;;;;;;;4.85;4.35;;;;;;;4.75;55.97;94428.47;5008657;28;20054;-76
2021/12/20 01:54:30;;;;;;;4.57;4.10;;;;;;;4.76;55.86;94417.19;5023989;28;20076;-75
2021/12/20 01:56:56;;;;;;;5.55;4.85;;;;;;;4.80;55.93;94422.69;5010969;28;20466;-76
2021/12/20 01:59:21;;;;;;;4.95;4.55;;;;;;;4.80;55.03;94418.34;5009675;28;20045;-76
2021/12/20 02:01:53;;;;;;;5.40;4.38;;;;;;;4.86;55.05;94431.38;5010895;28;20451;-76
2021/12/20 02:04:20;;;;;;;7.83;5.30;;;;;;;4.89;55.12;94425.84;5010530;28;20165;-76
2021/12/20 02:06:47;;;;;;;5.95;5.35;;;;;;;4.89;55.00;94433.56;5009893;28;20843;-75
2021/12/20 02:09:15;;;;;;;8.05;6.00;;;;;;;4.97;55.32;94428.16;4993026;28;20030;-76
2021/12/20 02:11:45;;;;;;;5.80;5.00;;;;;;;5.02;55.00;94425.75;5009109;28;20048;-76
2021/12/20 02:14:13;;;;;;;5.40;4.82;;;;;;;5.00;55.31;94422.59;5011584;28;20037;-76
2021/12/20 02:16:40;;;;;;;6.72;5.95;;;;;;;4.98;55.42;94412.50;5011445;28;20117;-75
2021/12/20 02:19:11;;;;;;;9.07;5.43;;;;;;;4.94;55.90;94420.84;5005830;28;20044;-75
2021/12/20 02:21:37;;;;;;;5.72;5.20;;;;;;;4.78;55.62;94422.13;5010198;28;20437;-75
2021/12/20 02:24:02;;;;;;;5.78;5.28;;;;;;;4.71;55.93;94419.56;5010334;28;20037;-75
2021/12/20 02:26:28;;;;;;;7.13;5.47;;;;;;;4.69;56.60;94437.00;5010435;28;20034;-75
2021/12/20 02:28:56;;;;;;;9.07;6.05;;;;;;;4.68;56.01;94429.47;4992846;28;20022;-75
2021/12/20 02:39:20;;;;;;;9.07;6.40;;;;;;;4.68;56.48;94411.44;5009409;28;20080;-75
2021/12/20 02:41:45;;;;;;;5.53;5.03;;;;;;;4.71;56.26;94424.69;5010347;28;20029;-75
2021/12/20 02:44:17;;;;;;;8.52;6.43;;;;;;;4.74;56.51;94426.91;5024875;28;20478;-75
2021/12/20 02:49:10;;;;;;;8.55;6.57;;;;;;;4.66;56.60;94432.25;5008866;28;20030;-75
2021/12/20 02:51:38;;;;;;;6.28;5.68;;;;;;;4.61;56.99;94433.88;4992220;28;20030;-74
2021/12/20 02:54:06;;;;;;;6.32;5.68;;;;;;;4.60;56.73;94443.38;5008861;28;20029;-75
2021/12/20 02:56:31;;;;;;;5.72;5.20;;;;;;;4.66;57.12;94427.13;4992674;28;20390;-75
2021/12/20 02:58:57;;;;;;;5.55;5.13;;;;;;;4.71;56.85;94418.75;5008616;28;20084;-76
2021/12/20 03:01:22;;;;;;;13.57;8.77;;;;;;;4.73;56.58;94412.44;5008534;28;20030;-77
2021/12/20 03:03:49;;;;;;;6.80;6.20;;;;;;;4.78;56.61;94428.06;5008613;28;20535;-75
2021/12/20 03:06:20;;;;;;;8.55;7.32;;;;;;;4.81;56.30;94412.19;5010205;28;20100;-75
2021/12/20 03:08:48;;;;;;;6.78;6.03;;;;;;;4.80;56.37;94422.69;5008938;28;20056;-76
2021/12/20 03:11:14;;;;;;;12.18;6.85;;;;;;;4.81;57.09;94424.28;4992431;28;20026;-75
2021/12/20 03:16:11;;;;;;;11.63;8.00;;;;;;;4.86;56.27;94431.38;5048853;23;20050;-75
2021/12/20 03:18:48;;;;;;;9.77;7.20;;;;;;;4.92;56.46;94428.00;4996586;28;20413;-76
2021/12/20 03:21:13;;;;;;;7.25;6.40;;;;;;;4.96;56.66;94421.44;4981722;28;20038;-76
2021/12/20 03:23:39;;;;;;;8.98;6.80;;;;;;;4.96;56.19;94424.00;4999678;28;20398;-76
2021/12/20 03:26:04;;;;;;;7.03;6.28;;;;;;;4.96;56.23;94414.50;5000101;28;20022;-77
2021/12/20 03:28:30;;;;;;;7.20;6.03;;;;;;;5.02;55.73;94420.59;5000133;28;20425;-76
2021/12/20 03:30:57;;;;;;;6.90;6.20;;;;;;;5.04;55.55;94419.41;4999818;28;20080;-76
2021/12/20 03:33:23;;;;;;;9.00;7.75;;;;;;;5.06;55.88;94414.84;4998514;28;20030;-76
2021/12/20 03:35:48;;;;;;;7.28;5.80;;;;;;;5.12;56.21;94439.78;5004296;28;20035;-76
2021/12/20 03:38:34;;;;;;;8.75;6.55;;;;;;;5.14;55.64;94439.56;4999530;28;20040;-76
2021/12/20 03:41:09;;;;;;;7.30;6.15;;;;;;;5.15;56.23;94438.56;4998338;28;20074;-76
2021/12/20 03:43:35;;;;;;;7.78;6.97;;;;;;;5.13;56.09;94443.16;4999272;28;20038;-77
2021/12/20 03:48:54;;;;;;;7.75;6.07;;;;;;;5.12;56.68;94436.41;4986090;28;20121;-76
2021/12/20 03:51:20;;;;;;;7.68;6.55;;;;;;;5.03;56.25;94437.63;4998683;28;20029;-76
2021/12/20 03:53:45;;;;;;;7.72;5.70;;;;;;;4.91;57.06;94431.56;4999645;28;20079;-76
2021/12/20 03:56:14;;;;;;;7.20;6.47;;;;;;;4.85;57.33;94440.91;4999195;28;20066;-76
2021/12/20 03:58:39;;;;;;;6.63;5.95;;;;;;;4.81;57.39;94445.69;4999385;28;20040;-76
2021/12/20 04:01:07;;;;;;;7.47;6.57;;;;;;;4.72;58.39;94446.91;4998111;28;20042;-76
2021/12/20 04:03:34;;;;;;;11.55;7.07;;;;;;;4.73;58.35;94443.34;4999431;28;20451;-76
2021/12/20 04:06:03;;;;;;;7.95;7.15;;;;;;;4.74;58.49;94442.34;4990008;28;20046;-76
2021/12/20 04:08:29;;;;;;;10.02;8.18;;;;;;;4.79;58.83;94450.25;4982024;28;20037;-76
2021/12/20 04:10:56;;;;;;;10.57;8.23;;;;;;;4.87;58.61;94459.50;4982017;28;20030;-76
2021/12/20 04:13:22;;;;;;;13.55;9.50;;;;;;;4.94;58.36;94452.56;4997151;28;20395;-77
2021/12/20 04:15:47;;;;;;;11.75;9.73;;;;;;;4.95;59.02;94451.56;4965730;28;20027;-77
2021/12/20 04:18:13;;;;;;;9.63;7.85;;;;;;;4.92;59.06;94446.81;4997539;28;20033;-76
2021/12/20 04:23:23;;;;;;;13.55;10.57;;;;;;;4.92;59.00;94469.22;4992014;23;20054;-77
2021/12/20 04:25:48;;;;;;;13.75;9.98;;;;;;;4.99;58.91;94480.28;4972044;28;20633;-75
2021/12/20 04:28:14;;;;;;;15.45;11.05;;;;;;;5.02;58.88;94482.44;4987766;28;20045;-75
2021/12/20 04:30:39;;;;;;;15.10;9.85;;;;;;;5.10;59.15;94475.28;4989103;28;20541;-76
2021/12/20 04:33:05;;;;;;;17.75;13.20;;;;;;;5.14;59.18;94478.22;4987326;28;20036;-77
2021/12/20 04:35:30;;;;;;;17.85;13.23;;;;;;;5.18;58.69;94470.88;4989575;28;20108;-77
2021/12/20 04:37:58;;;;;;;12.80;10.90;;;;;;;5.20;59.18;94469.66;4989529;28;20031;-77
2021/12/20 04:40:23;;;;;;;10.77;7.40;;;;;;;5.19;58.61;94472.44;4988328;28;20034;-77
2021/12/20 04:42:53;;;;;;;8.82;7.68;;;;;;;5.05;58.75;94471.75;4982886;28;20038;-77
2021/12/20 04:45:19;;;;;;;10.18;8.48;;;;;;;4.98;59.54;94481.28;4981981;28;20030;-77
2021/12/20 04:47:45;;;;;;;9.93;8.23;;;;;;;4.96;59.24;94483.28;4971689;28;20045;-77
2021/12/20 04:50:10;;;;;;;10.30;8.20;;;;;;;4.98;59.28;94478.69;4987712;28;20030;-77
2021/12/20 04:52:36;;;;;;;10.40;8.30;;;;;;;4.96;59.20;94488.41;4972874;28;20049;-77
2021/12/20 04:55:03;;;;;;;8.52;7.53;;;;;;;4.94;59.44;94472.38;4996197;28;20037;-78
2021/12/20 04:57:28;;;;;;;8.50;7.63;;;;;;;4.88;58.90;94483.47;4972065;23;20233;-78
2021/12/20 04:59:54;;;;;;;10.43;8.10;;;;;;;4.75;59.01;94492.88;5006708;28;20098;-77
2021/12/20 05:02:19;;;;;;;9.18;7.63;;;;;;;4.65;60.17;94492.50;4987449;28;20045;-78
2021/12/20 05:04:45;;;;;;;9.95;7.43;;;;;;;4.62;60.32;94492.91;5013170;28;20034;-78
2021/12/20 05:07:10;;;;;;;18.77;11.85;;;;;;;4.57;60.38;94495.31;4992492;28;20038;-78
2021/12/20 05:09:39;;;;;;;14.52;10.10;;;;;;;4.60;60.76;94489.75;5008497;28;20042;-78
2021/12/20 05:12:19;;;;;;;7.70;6.85;;;;;;;4.50;60.37;94499.66;4991844;28;20058;-78
2021/12/20 05:14:44;;;;;;;7.93;7.03;;;;;;;4.44;60.93;94505.63;4970830;23;20057;-78
2021/12/20 05:17:11;;;;;;;7.85;6.80;;;;;;;4.42;61.65;94512.75;4975257;28;20023;-78
2021/12/20 05:19:38;;;;;;;8.15;6.40;;;;;;;4.45;61.09;94522.66;4958964;28;20034;-78
2021/12/20 05:22:04;;;;;;;7.60;6.28;;;;;;;4.43;61.47;94517.69;4961792;28;20027;-80
2021/12/20 05:24:29;;;;;;;9.98;7.18;;;;;;;4.34;61.79;94510.38;4959204;28;20034;-79
2021/12/20 05:26:55;;;;;;;11.40;8.35;;;;;;;4.32;61.80;94508.00;4961285;28;20172;-82
2021/12/20 05:29:22;;;;;;;16.60;10.20;;;;;;;4.25;61.63;94522.69;4960930;28;20038;-78
2021/12/20 05:31:47;;;;;;;15.70;10.40;;;;;;;4.18;62.51;94512.38;4977668;28;20070;-79
2021/12/20 05:34:13;;;;;;;10.80;8.85;;;;;;;4.16;62.43;94524.66;4979373;28;20030;-78
2021/12/20 05:36:38;;;;;;;12.18;8.82;;;;;;;4.07;62.66;94525.06;4976144;28;20035;-77
2021/12/20 05:39:04;;;;;;;17.10;10.82;;;;;;;4.08;63.05;94527.44;4975881;28;20030;-79
2021/12/20 05:41:29;;;;;;;16.02;11.13;;;;;;;4.12;62.71;94526.03;4959919;28;20110;-77
2021/12/20 05:43:55;;;;;;;14.40;10.38;;;;;;;4.13;63.18;94525.06;4976339;28;20489;-79
2021/12/20 05:46:20;;;;;;;18.08;12.07;;;;;;;4.07;62.91;94523.28;4970425;28;20031;-78
2021/12/20 05:48:46;;;;;;;14.90;11.18;;;;;;;4.11;62.95;94516.75;4961942;28;20035;-79
2021/12/20 05:51:11;;;;;;;20.35;12.52;;;;;;;4.15;62.87;94523.06;4962214;28;20037;-78
2021/12/20 05:53:36;;;;;;;13.80;10.05;;;;;;;4.17;62.28;94513.38;4962775;28;20039;-78
2021/12/20 05:56:02;;;;;;;21.55;11.93;;;;;;;4.20;61.85;94510.38;4972788;28;20035;-78
2021/12/20 05:58:27;;;;;;;11.32;8.55;;;;;;;4.24;62.12;94522.88;4946324;28;20039;-78
2021/12/20 06:00:53;;;;;;;19.30;11.95;;;;;;;4.28;62.44;94521.50;4979602;28;20455;-78
2021/12/20 06:03:18;;;;;;;13.90;10.20;;;;;;;4.34;62.31;94528.41;4972050;28;20081;-77
2021/12/20 06:05:44;;;;;;;14.70;11.02;;;;;;;4.41;61.41;94537.72;4971309;28;20039;-77
2021/12/20 06:08:09;;;;;;;18.60;11.65;;;;;;;4.45;61.63;94532.94;4972180;28;20097;-79
2021/12/20 06:10:35;;;;;;;11.20;9.18;;;;;;;4.42;61.43;94538.50;4971204;28;20215;-77
2021/12/20 06:13:04;;;;;;;22.65;14.32;;;;;;;4.45;61.87;94544.03;5097105;23;20450;-77
2021/12/20 06:15:29;;;;;;;12.00;8.88;;;;;;;4.53;60.90;94532.72;5038145;28;20045;-77
2021/12/20 06:17:55;;;;;;;12.48;9.68;;;;;;;4.61;60.64;94542.03;4999252;28;20034;-78
2021/12/20 06:20:20;;;;;;;15.70;10.63;;;;;;;4.63;61.11;94545.97;5022602;28;20034;-78
2021/12/20 06:22:46;;;;;;;15.77;10.65;;;;;;;4.66;60.42;94550.72;5019828;28;20482;-78
2021/12/20 06:25:11;;;;;;;18.38;11.85;;;;;;;4.66;60.59;94550.72;4986305;28;20041;-78
2021/12/20 06:27:37;;;;;;;18.83;10.82;;;;;;;4.69;60.40;94542.59;4989762;28;20037;-78
2021/12/20 06:30:04;;;;;;;13.55;10.75;;;;;;;4.76;60.20;94552.91;5006713;28;20042;-78
2021/12/20 06:32:29;;;;;;;23.75;14.98;;;;;;;4.83;60.63;94545.94;4989627;28;20034;-79
2021/12/20 06:34:55;;;;;;;20.10;12.93;;;;;;;4.84;59.63;94552.66;5022637;28;20405;-79
2021/12/20 06:37:21;;;;;;;14.98;10.30;;;;;;;4.87;60.04;94546.31;5024654;28;20040;-79
2021/12/20 06:39:47;;;;;;;16.17;10.90;;;;;;;4.94;59.43;94552.25;5009524;28;20485;-79
2021/12/20 06:42:12;;;;;;;17.63;12.20;;;;;;;4.96;59.54;94555.41;5007820;28;20037;-78
2021/12/20 06:44:38;;;;;;;12.85;9.65;;;;;;;4.97;58.15;94551.84;5006579;28;20041;-78
2021/12/20 06:47:03;;;;;;;12.60;8.25;;;;;;;4.96;58.30;94558.00;5007420;28;20594;-80
2021/12/20 06:49:31;;;;;;;10.35;7.72;;;;;;;4.92;58.17;94551.66;5026049;28;20037;-79
2021/12/20 06:52:00;;;;;;;11.38;8.93;;;;;;;4.79;58.97;94560.22;5011205;28;20115;-79
2021/12/20 06:54:26;;;;;;;14.18;10.02;;;;;;;4.74;58.91;94555.69;5008474;28;20417;-80
2021/12/20 06:56:52;;;;;;;10.68;7.63;;;;;;;4.71;59.52;94553.47;5008346;28;20029;-80
2021/12/20 06:59:17;;;;;;;13.70;7.63;;;;;;;4.71;59.58;94548.34;5026030;28;20042;-80
2021/12/20 07:01:45;;;;;;;9.18;7.45;;;;;;;4.70;59.83;94556.25;5014005;28;20474;-80
2021/12/20 07:04:12;;;;;;;12.27;8.18;;;;;;;4.65;59.85;94564.59;5011533;28;20033;-79
2021/12/20 07:06:38;;;;;;;20.70;11.30;;;;;;;4.59;60.40;94560.25;5009697;28;20068;-79
2021/12/20 07:09:06;;;;;;;14.25;11.68;;;;;;;4.62;60.62;94562.44;5009927;28;20029;-79
2021/12/20 07:11:32;;;;;;;17.50;11.05;;;;;;;4.69;60.34;94563.19;5026759;28;20037;-80
2021/12/20 07:13:58;;;;;;;16.70;11.40;;;;;;;4.78;59.96;94562.00;5009569;28;20069;-80
2021/12/20 07:16:23;;;;;;;10.80;7.85;;;;;;;4.86;59.08;94549.88;5025621;28;20040;-80
2021/12/20 07:18:49;;;;;;;10.95;7.72;;;;;;;4.86;58.88;94549.88;5008902;28;20030;-80
2021/12/20 07:21:17;;;;;;;6.80;5.70;;;;;;;4.88;58.98;94558.19;5009286;28;20037;-80
2021/12/20 07:23:42;;;;;;;11.55;9.30;;;;;;;4.92;59.34;94564.56;5025771;28;20494;-80
2021/12/20 07:26:12;;;;;;;18.48;11.18;;;;;;;5.02;59.31;94575.22;5023353;28;20117;-80
2021/12/20 07:28:41;;;;;;;19.92;13.23;;;;;;;5.19;59.09;94568.59;5025888;28;20175;-80
2021/12/20 07:31:06;;;;;;;21.95;12.15;;;;;;;5.24;58.83;94566.22;5008694;28;20091;-80
2021/12/20 07:33:31;;;;;;;15.20;11.50;;;;;;;5.33;57.89;94577.88;4993446;28;20093;-79
2021/12/20 07:36:00;;;;;;;19.55;13.02;;;;;;;5.41;57.81;94572.50;5025437;28;20030;-80
2021/12/20 07:38:25;;;;;;;20.02;14.18;;;;;;;5.47;57.50;94567.50;5031078;28;20034;-80
2021/12/20 07:40:51;;;;;;;12.52;10.02;;;;;;;5.52;58.04;94565.88;5011850;28;20096;-80
2021/12/20 07:43:17;;;;;;;17.15;11.82;;;;;;;5.56;57.28;94569.66;4993287;28;20037;-79
2021/12/20 07:45:43;;;;;;;17.50;10.70;;;;;;;5.62;57.26;94575.75;5011256;28;20508;-79
2021/12/20 07:48:08;;;;;;;11.90;7.38;;;;;;;5.59;56.85;94560.72;5024031;28;20053;-83
2021/12/20 07:50:34;;;;;;;7.68;6.25;;;;;;;5.54;56.75;94571.66;5007354;28;20022;-80
2021/12/20 07:53:00;;;;;;;12.25;8.57;;;;;;;5.57;56.85;94573.81;5008948;28;20026;-80
2021/12/20 07:55:25;;;;;;;15.75;9.60;;;;;;;5.65;56.95;94578.72;5010806;28;20065;-80
2021/12/20 07:57:51;;;;;;;13.38;9.43;;;;;;;5.70;57.00;94578.13;5025431;28;20033;-80
2021/12/20 08:00:17;;;;;;;8.77;6.15;;;;;;;5.87;55.72;94563.72;5010573;28;20030;-79
2021/12/20 08:02:42;;;;;;;17.80;11.48;;;;;;;6.09;55.64;94576.31;5005859;28;20029;-79
2021/12/20 08:05:08;;;;;;;21.35;12.73;;;;;;;6.24;55.07;94574.22;5008921;28;20121;-79
2021/12/20 08:07:34;;;;;;;12.40;8.18;;;;;;;6.23;54.13;94583.75;5021083;28;20029;-79
2021/12/20 08:09:59;;;;;;;13.77;9.60;;;;;;;6.26;54.72;94587.69;5007903;28;20061;-79
2021/12/20 08:12:25;;;;;;;16.60;10.60;;;;;;;6.29;54.16;94584.69;5025690;28;20049;-79
2021/12/20 08:14:50;;;;;;;26.20;12.77;;;;;;;6.22;53.52;94581.38;4990336;28;20045;-79
2021/12/20 08:17:16;;;;;;;13.88;8.10;;;;;;;6.27;52.57;94592.66;5009242;28;20489;-79
2021/12/20 08:19:42;;;;;;;17.80;10.50;;;;;;;6.41;53.43;94595.94;5008731;28;20041;-79
2021/12/20 08:22:07;;;;;;;19.60;11.32;;;;;;;6.54;52.50;94600.19;5007982;28;20033;-79
2021/12/20 08:24:33;;;;;;;14.93;9.73;;;;;;;6.54;52.47;94592.44;5025135;28;20057;-79
2021/12/20 08:26:58;;;;;;;7.63;6.30;;;;;;;6.53;51.95;94602.00;5026802;28;20041;-79
2021/12/20 08:29:24;;;;;;;7.70;5.93;;;;;;;6.49;51.93;94605.97;5011618;28;20034;-79
2021/12/20 08:31:50;;;;;;;7.72;6.00;;;;;;;6.42;52.08;94601.88;5012558;28;20076;-79
2021/12/20 08:34:16;;;;;;;9.48;7.28;;;;;;;6.43;52.21;94593.91;5011849;28;20080;-79
2021/12/20 08:36:41;;;;;;;12.65;9.93;;;;;;;6.42;52.46;94592.34;5011665;28;20048;-80
2021/12/20 08:39:07;;;;;;;8.07;7.28;;;;;;;6.39;52.51;94603.09;5012572;28;20436;-79
2021/12/20 08:41:32;;;;;;;9.15;6.95;;;;;;;6.44;52.10;94598.09;5008152;28;20037;-79
2021/12/20 08:43:58;;;;;;;20.13;6.45;;;;;;;6.40;52.77;94602.09;5010438;28;20029;-79
2021/12/20 08:46:23;;;;;;;10.02;7.43;;;;;;;6.35;52.48;94601.16;5011917;28;20083;-79
2021/12/20 08:48:50;;;;;;;11.18;7.47;;;;;;;6.27;52.44;94609.94;5010097;28;20485;-78
2021/12/20 08:51:16;;;;;;;7.43;5.78;;;;;;;6.19;52.71;94618.75;5008694;28;20076;-79
2021/12/20 08:53:41;;;;;;;19.98;11.77;;;;;;;6.21;53.17;94609.00;5011150;28;20037;-80
2021/12/20 08:56:07;;;;;;;12.18;8.23;;;;;;;6.29;53.26;94607.94;5034437;23;20060;-79
2021/12/20 08:58:32;;;;;;;10.27;8.23;;;;;;;6.28;52.28;94606.34;5027217;28;20083;-78
2021/12/20 09:00:58;;;;;;;23.13;12.45;;;;;;;6.29;53.40;94603.56;5027863;28;20030;-79
2021/12/20 09:03:23;;;;;;;11.80;8.20;;;;;;;6.26;53.04;94613.53;5098107;23;20049;-79
2021/12/20 09:05:49;;;;;;;21.10;12.20;;;;;;;6.30;53.06;94610.28;5027106;28;20457;-79
2021/12/20 09:08:19;;;;;;;19.75;12.68;;;;;;;6.37;52.78;94614.66;5021045;28;20691;-80
2021/12/20 09:10:45;;;;;;;19.33;11.10;;;;;;;6.41;52.79;94608.06;5020780;28;20817;-79
2021/12/20 09:13:10;;;;;;;20.60;13.63;;;;;;;6.44;52.50;94605.84;5894735;22;20254;-79
2021/12/20 09:15:36;;;;;;;11.90;8.65;;;;;;;6.51;51.72;94595.47;5043306;28;20037;-79
2021/12/20 09:18:02;;;;;;;17.38;11.88;;;;;;;6.60;51.53;94589.81;5045932;28;20064;-79
2021/12/20 09:20:27;;;;;;;23.10;14.35;;;;;;;6.75;51.35;94596.44;5053159;28;20519;-79
2021/12/20 09:22:56;;;;;;;12.98;7.50;;;;;;;6.79;50.15;94579.50;5044982;28;20060;-79
2021/12/20 09:25:37;;;;;;;6.88;6.22;;;;;;;6.65;50.10;94581.41;5050160;28;20025;-78
2021/12/20 09:28:04;;;;;;;9.20;5.68;;;;;;;6.60;50.19;94589.81;4992400;28;20050;-79
2021/12/20 09:30:30;;;;;;;6.68;5.80;;;;;;;6.60;49.72;94589.81;5011094;28;20034;-79
2021/12/20 09:32:58;;;;;;;6.18;5.10;;;;;;;6.53;49.96;94589.06;4995058;28;20049;-79
2021/12/20 09:35:23;;;;;;;5.68;4.25;;;;;;;6.43;50.11;94587.97;4994092;28;20113;-78
2021/12/20 09:40:38;;;;;;;6.78;5.18;;;;;;;6.30;51.20;94594.81;5092802;23;20045;-78
2021/12/20 09:43:08;;;;;;;6.32;4.63;;;;;;;6.23;51.32;94590.72;5021919;28;20041;-79
2021/12/20 09:45:33;;;;;;;15.15;9.52;;;;;;;6.22;50.99;94600.25;5014534;28;20044;-79
2021/12/20 09:47:59;;;;;;;14.35;8.55;;;;;;;6.30;51.34;94587.06;5030575;28;20509;-79
2021/12/20 09:50:25;;;;;;;6.88;3.72;;;;;;;6.31;51.54;94595.59;5030984;28;20030;-79
2021/12/20 09:52:51;;;;;;;5.32;4.80;;;;;;;6.35;51.71;94590.81;4999423;28;20036;-79
2021/12/20 09:55:16;;;;;;;9.20;6.53;;;;;;;6.38;51.50;94591.19;5015810;28;20037;-79
2021/12/20 09:57:43;;;;;;;3.78;3.45;;;;;;;6.28;50.76;94581.31;5095626;23;20055;-77
2021/12/20 10:00:12;;;;;;;11.32;7.03;;;;;;;6.16;51.64;94587.38;5067994;23;20075;-78
2021/12/20 10:02:38;;;;;;;3.50;3.20;;;;;;;6.04;51.28;94571.00;4999346;28;20045;-79
2021/12/20 10:05:12;;;;;;;3.13;2.92;;;;;;;5.84;51.87;94577.00;5058166;23;20037;-80
2021/12/20 10:07:39;;;;;;;10.02;5.65;;;;;;;5.75;53.30;94575.69;5044205;28;20060;-80
2021/12/20 10:10:06;;;;;;;10.10;6.57;;;;;;;5.75;52.60;94574.91;5042817;28;20025;-79
2021/12/20 10:12:31;;;;;;;4.03;3.30;;;;;;;5.76;52.57;94582.44;5028185;28;20102;-80
2021/12/20 10:15:08;;;;;;;5.13;4.20;;;;;;;5.75;53.37;94586.00;5033454;28;20033;-80
2021/12/20 10:17:49;;;;;;;4.60;4.13;;;;;;;5.77;52.92;94584.00;5030387;28;20116;-79
2021/12/20 10:20:19;;;;;;;5.38;3.88;;;;;;;5.77;53.26;94573.69;5047202;28;20497;-79
2021/12/20 10:22:45;;;;;;;3.88;3.50;;;;;;;5.76;53.08;94585.00;5029780;28;20116;-79
2021/12/20 10:25:27;;;;;;;2.55;2.35;;;;;;;5.67;53.12;94578.50;5043202;28;20072;-79
2021/12/20 10:27:53;;;;;;;3.08;2.88;;;;;;;5.44;54.65;94584.19;5037607;28;20040;-79
2021/12/20 10:30:29;;;;;;;3.28;3.00;;;;;;;5.30;55.21;94578.28;5029511;28;20492;-79
2021/12/20 10:32:54;;;;;;;10.23;7.32;;;;;;;5.30;56.22;94578.28;5027810;28;20036;-79
2021/12/20 10:35:26;;;;;;;3.83;3.53;;;;;;;5.30;56.24;94596.34;5044916;28;20034;-79
2021/12/20 10:37:57;;;;;;;4.68;4.25;;;;;;;5.25;57.36;94596.16;5045098;28;20033;-79
2021/12/20 10:40:23;;;;;;;9.88;5.28;;;;;;;5.26;57.25;94579.69;5024967;28;20127;-78
2021/12/20 10:42:49;;;;;;;10.63;5.28;;;;;;;5.29;57.81;94592.19;5045724;28;20037;-79
2021/12/20 10:45:18;;;;;;;3.80;3.53;;;;;;;5.34;58.41;94600.06;5046221;28;20039;-79
2021/12/20 10:47:44;;;;;;;11.65;7.18;;;;;;;5.38;57.64;94596.13;5042225;28;20037;-78
2021/12/20 10:50:30;;;;;;;16.25;10.30;;;;;;;5.47;57.97;94595.88;5029010;28;20030;-79
2021/12/20 10:53:14;;;;;;;25.55;15.30;;;;;;;5.59;58.06;94601.97;5026792;28;20092;-79
2021/12/20 10:55:47;;;;;;;21.73;12.63;;;;;;;5.73;56.88;94609.44;5046377;28;20022;-79
2021/12/20 10:58:28;;;;;;;15.82;9.32;;;;;;;5.91;56.35;94592.50;5017449;28;20030;-79
2021/12/20 11:01:23;;;;;;;14.27;9.07;;;;;;;6.05;55.90;94590.63;5033476;28;20084;-79
2021/12/20 11:04:03;;;;;;;9.43;6.88;;;;;;;6.14;54.97;94594.53;5042345;28;20473;-79
2021/12/20 11:09:19;;;;;;;9.43;7.20;;;;;;;6.29;54.18;94597.59;5047938;28;20125;-79
2021/12/20 11:11:55;;;;;;;7.10;4.97;;;;;;;6.24;54.41;94600.81;5045851;28;20063;-80
2021/12/20 11:17:01;;;;;;;6.63;4.88;;;;;;;6.12;54.33;94586.22;5022074;23;20058;-80
2021/12/20 11:19:40;;;;;;;11.30;6.43;;;;;;;6.10;53.87;94583.84;4999254;28;20121;-80
2021/12/20 11:22:07;;;;;;;11.18;6.85;;;;;;;5.99;54.51;94572.38;4997614;28;20030;-80
2021/12/20 11:24:52;;;;;;;9.70;6.18;;;;;;;6.04;54.08;94578.72;4994335;28;20065;-80
2021/12/20 11:27:32;;;;;;;6.13;4.60;;;;;;;5.97;54.46;94576.19;4996439;28;20030;-80
2021/12/20 11:30:01;;;;;;;14.60;6.30;;;;;;;5.91;54.12;94569.28;4978105;28;20034;-80
2021/12/20 11:32:27;;;;;;;25.20;16.75;;;;;;;5.88;54.83;94573.03;4993457;28;20442;-80
2021/12/20 11:34:53;;;;;;;38.20;23.75;;;;;;;5.91;55.03;94558.97;4995740;28;20089;-80
2021/12/20 11:37:23;;;;;;;17.67;12.95;;;;;;;5.76;55.40;94566.16;4995043;28;20228;-80
2021/12/20 11:39:49;;;;;;;14.23;10.02;;;;;;;5.60;55.94;94549.38;4997024;28;20038;-80
2021/12/20 11:42:15;;;;;;;12.00;8.43;;;;;;;5.51;55.38;94573.81;4979141;28;20064;-79
2021/12/20 11:44:42;;;;;;;26.13;13.40;;;;;;;5.40;56.03;94575.28;4979525;28;20453;-79
2021/12/20 11:47:25;;;;;;;40.78;18.00;;;;;;;5.26;55.86;94577.13;4979310;28;20053;-80
2021/12/20 11:52:24;;;;;;;23.45;15.45;;;;;;;4.77;58.40;94587.97;4971732;28;20480;-78
2021/12/20 11:54:54;;;;;;;20.70;12.73;;;;;;;4.66;58.72;94591.16;4952262;28;20039;-78
2021/12/20 11:57:37;;;;;;;8.70;6.40;;;;;;;4.68;58.50;94602.03;4973171;28;20046;-78
2021/12/20 12:00:07;;;;;;;7.53;6.13;;;;;;;4.61;58.09;94607.19;4956195;28;20034;-78
2021/12/20 12:02:33;;;;;;;13.40;7.97;;;;;;;4.57;58.56;94608.59;4973846;28;20046;-78
2021/12/20 12:05:06;;;;;;;8.05;6.00;;;;;;;4.54;59.23;94598.66;4959048;28;20030;-78
2021/12/20 12:07:35;;;;;;;6.60;5.70;;;;;;;4.51;59.18;94610.16;4977412;28;20046;-78
2021/12/20 12:10:10;;;;;;;9.93;5.68;;;;;;;4.59;59.05;94591.16;4978962;28;20035;-78
2021/12/20 12:15:27;;;;;;;13.20;9.65;;;;;;;4.55;59.54;94609.75;5187212;23;20429;-77